Time;durP1;ratioP1;P1;durP2;ratioP2;P2;SDS_P1;SDS_P2;PMS_P1;PMS_P2;Temp;Humidity;BMP_temperature;BMP_pressure;BME280_temperature;BME280_humidity;BME280_pressure;Samples;Min_cycle;Max_cycle;Signal;HPM_P1;HPM_P2
2022/11/25 00:01:11;;;;;;;2.28;1.52;;;;;;;;;;5071826;28;20021;-45
2022/11/25 00:03:37;;;;;;;4.30;2.13;;;;;;;;;;5071768;28;20492;-44
2022/11/25 00:06:13;;;;;;;2.50;1.50;;;;;;;;;;5071117;28;20028;-45
2022/11/25 00:11:34;;;;;;;3.90;1.60;;;;;;;;;;5059335;28;20092;-45
2022/11/25 00:14:00;;;;;;;4.32;1.88;;;;;;;;;;5060606;28;20029;-45
2022/11/25 00:16:26;;;;;;;2.65;1.30;;;;;;;;;;5070377;28;20032;-45
2022/11/25 00:18:52;;;;;;;3.33;1.52;;;;;;;;;;5071622;28;20492;-45
2022/11/25 00:21:19;;;;;;;3.25;1.85;;;;;;;;;;5070484;28;20089;-45
2022/11/25 00:23:51;;;;;;;3.35;2.10;;;;;;;;;;5071328;28;20032;-45
2022/11/25 00:26:17;;;;;;;3.22;1.80;;;;;;;;;;5070550;28;20497;-44
2022/11/25 00:28:44;;;;;;;4.13;1.67;;;;;;;;;;5071710;28;20100;-45
2022/11/25 00:31:10;;;;;;;2.78;1.52;;;;;;;;;;5063083;28;20021;-49
2022/11/25 00:33:36;;;;;;;4.85;1.95;;;;;;;;;;5066396;28;20033;-45
2022/11/25 00:36:03;;;;;;;2.55;1.38;;;;;;;;;;5071252;28;20074;-44
2022/11/25 00:38:29;;;;;;;2.60;1.27;;;;;;;;;;5066657;28;20031;-45
2022/11/25 00:46:25;;;;;;;2.45;1.40;;;;;;;;;;5069826;28;20148;-45
2022/11/25 00:48:51;;;;;;;3.15;1.50;;;;;;;;;;5065316;28;20056;-45
2022/11/25 00:51:17;;;;;;;4.00;1.90;;;;;;;;;;5070315;28;20021;-45
2022/11/25 00:53:43;;;;;;;2.67;1.40;;;;;;;;;;5071403;28;20027;-45
2022/11/25 00:56:12;;;;;;;2.30;2.00;;;;;;;;;;5070518;28;20409;-50
2022/11/25 00:58:38;;;;;;;2.60;1.60;;;;;;;;;;5071574;28;20024;-45
2022/11/25 01:01:04;;;;;;;2.60;1.65;;;;;;;;;;5071021;28;20083;-44
2022/11/25 01:03:30;;;;;;;3.33;1.60;;;;;;;;;;5070313;28;20060;-44
2022/11/25 01:06:00;;;;;;;2.63;1.27;;;;;;;;;;5062624;28;20032;-45
2022/11/25 01:08:26;;;;;;;2.67;1.92;;;;;;;;;;5070484;28;20063;-44
2022/11/25 01:11:02;;;;;;;2.00;1.33;;;;;;;;;;5070397;28;20052;-44
2022/11/25 01:13:28;;;;;;;2.22;1.17;;;;;;;;;;5070440;28;20036;-44
2022/11/25 01:15:54;;;;;;;1.92;1.40;;;;;;;;;;5070565;28;20029;-44
2022/11/25 01:18:20;;;;;;;2.58;1.45;;;;;;;;;;5070599;28;20094;-45
2022/11/25 01:20:46;;;;;;;2.80;1.45;;;;;;;;;;5070606;28;20025;-45
2022/11/25 01:23:12;;;;;;;2.95;1.58;;;;;;;;;;5063774;28;20035;-47
2022/11/25 01:25:38;;;;;;;3.47;1.35;;;;;;;;;;5072888;28;20039;-44
2022/11/25 01:28:04;;;;;;;1.33;1.08;;;;;;;;;;5075217;28;20064;-46
2022/11/25 01:30:30;;;;;;;2.65;1.52;;;;;;;;;;5070772;28;20024;-45
2022/11/25 01:32:56;;;;;;;2.70;1.40;;;;;;;;;;5075011;28;20036;-45
2022/11/25 01:35:22;;;;;;;2.67;1.58;;;;;;;;;;5073458;28;20025;-45
2022/11/25 01:37:48;;;;;;;2.92;1.80;;;;;;;;;;5074992;28;20021;-46
2022/11/25 01:40:14;;;;;;;2.55;1.63;;;;;;;;;;5060540;28;20031;-46
2022/11/25 01:42:45;;;;;;;2.35;1.48;;;;;;;;;;5074876;28;20016;-45
2022/11/25 01:45:17;;;;;;;3.00;1.60;;;;;;;;;;5074086;28;20032;-48
2022/11/25 01:47:43;;;;;;;2.78;1.33;;;;;;;;;;5074907;28;20021;-45
2022/11/25 01:50:10;;;;;;;2.50;1.45;;;;;;;;;;5073991;28;20433;-49
2022/11/25 01:52:38;;;;;;;2.65;1.40;;;;;;;;;;5074076;28;20035;-45
2022/11/25 01:55:13;;;;;;;2.10;1.30;;;;;;;;;;5074568;28;20040;-47
2022/11/25 01:57:41;;;;;;;2.55;1.85;;;;;;;;;;5067995;28;20016;-45
2022/11/25 02:00:08;;;;;;;2.45;1.40;;;;;;;;;;5074251;28;20522;-49
2022/11/25 02:02:34;;;;;;;2.50;1.38;;;;;;;;;;5074160;28;20021;-45
2022/11/25 02:05:03;;;;;;;3.10;1.83;;;;;;;;;;5073971;28;20040;-45
2022/11/25 02:07:34;;;;;;;3.90;1.33;;;;;;;;;;5072591;28;20091;-45
2022/11/25 02:10:01;;;;;;;3.15;1.60;;;;;;;;;;5073679;28;20021;-45
2022/11/25 02:12:28;;;;;;;5.25;1.40;;;;;;;;;;5072488;27;20070;-45
2022/11/25 02:14:54;;;;;;;2.15;1.48;;;;;;;;;;5074303;28;20025;-45
2022/11/25 02:17:20;;;;;;;2.35;1.10;;;;;;;;;;5073279;28;20339;-45
2022/11/25 02:19:59;;;;;;;1.77;1.10;;;;;;;;;;5074058;28;20032;-45
2022/11/25 02:22:41;;;;;;;2.45;1.30;;;;;;;;;;5072691;28;20024;-45
2022/11/25 02:25:15;;;;;;;1.90;1.15;;;;;;;;;;5073860;28;20469;-49
2022/11/25 02:27:42;;;;;;;2.92;1.27;;;;;;;;;;5073786;28;20469;-45
2022/11/25 02:30:08;;;;;;;1.60;1.10;;;;;;;;;;5072712;28;20035;-49
2022/11/25 02:32:34;;;;;;;3.30;1.60;;;;;;;;;;5073188;28;20063;-44
2022/11/25 02:35:00;;;;;;;2.17;1.42;;;;;;;;;;5073855;28;20415;-45
2022/11/25 02:37:27;;;;;;;1.85;1.15;;;;;;;;;;5066653;28;20079;-45
2022/11/25 02:39:54;;;;;;;3.03;1.65;;;;;;;;;;5068922;28;20416;-45
2022/11/25 02:42:21;;;;;;;2.70;1.40;;;;;;;;;;5072647;28;20100;-45
2022/11/25 02:44:47;;;;;;;3.20;1.77;;;;;;;;;;5073408;28;20029;-45
2022/11/25 02:47:13;;;;;;;4.10;1.40;;;;;;;;;;5079816;28;20095;-45
2022/11/25 02:49:39;;;;;;;4.00;1.48;;;;;;;;;;5067999;28;20104;-45
2022/11/25 02:52:05;;;;;;;2.78;1.60;;;;;;;;;;5072898;28;20028;-45
2022/11/25 02:54:31;;;;;;;2.40;1.33;;;;;;;;;;5072653;28;20016;-46
2022/11/25 02:56:57;;;;;;;2.38;1.45;;;;;;;;;;5073124;28;20031;-45
2022/11/25 02:59:23;;;;;;;3.05;1.58;;;;;;;;;;5072567;28;20079;-45
2022/11/25 03:01:49;;;;;;;2.10;1.20;;;;;;;;;;5072684;28;20023;-45
2022/11/25 03:04:15;;;;;;;3.42;1.45;;;;;;;;;;5071464;28;20115;-45
2022/11/25 03:06:41;;;;;;;2.15;1.30;;;;;;;;;;5068071;28;20044;-44
2022/11/25 03:09:07;;;;;;;2.67;1.80;;;;;;;;;;5067428;28;20053;-48
2022/11/25 03:14:17;;;;;;;4.07;1.55;;;;;;;;;;5071996;28;20047;-44
2022/11/25 03:16:43;;;;;;;2.50;1.65;;;;;;;;;;5072802;28;20029;-45
2022/11/25 03:19:09;;;;;;;1.77;1.10;;;;;;;;;;5072622;28;20021;-49
2022/11/25 03:21:35;;;;;;;2.58;1.20;;;;;;;;;;5071365;28;20035;-44
2022/11/25 03:24:02;;;;;;;2.10;1.02;;;;;;;;;;5072902;28;20040;-45
2022/11/25 03:26:28;;;;;;;2.42;1.48;;;;;;;;;;5071626;28;20028;-44
2022/11/25 03:28:54;;;;;;;3.17;1.40;;;;;;;;;;5072895;28;20377;-44
2022/11/25 03:31:20;;;;;;;1.98;1.50;;;;;;;;;;5071463;28;20042;-45
2022/11/25 03:33:46;;;;;;;2.72;1.10;;;;;;;;;;5072677;28;20112;-45
2022/11/25 03:36:12;;;;;;;2.35;1.42;;;;;;;;;;5071270;28;20074;-45
2022/11/25 03:38:38;;;;;;;2.00;1.33;;;;;;;;;;5062642;28;20052;-45
2022/11/25 03:41:04;;;;;;;2.45;1.10;;;;;;;;;;5072097;28;20436;-44
2022/11/25 03:43:30;;;;;;;2.60;1.08;;;;;;;;;;5071932;28;20206;-45
2022/11/25 03:45:56;;;;;;;2.75;1.50;;;;;;;;;;5071764;28;20023;-44
2022/11/25 03:48:22;;;;;;;2.50;1.40;;;;;;;;;;5070969;28;20380;-45
2022/11/25 03:50:48;;;;;;;1.75;1.13;;;;;;;;;;5072015;28;20028;-45
2022/11/25 03:53:14;;;;;;;1.75;1.00;;;;;;;;;;5071244;28;20093;-45
2022/11/25 03:55:40;;;;;;;1.73;1.00;;;;;;;;;;5070956;28;20457;-45
2022/11/25 03:58:06;;;;;;;2.15;1.10;;;;;;;;;;5072322;28;20029;-45
2022/11/25 04:00:32;;;;;;;3.00;1.40;;;;;;;;;;5070733;28;20174;-45
2022/11/25 04:02:58;;;;;;;1.70;1.35;;;;;;;;;;5072143;28;20024;-45
2022/11/25 04:05:24;;;;;;;3.22;1.23;;;;;;;;;;5070499;28;20031;-45
2022/11/25 04:07:50;;;;;;;6.55;1.23;;;;;;;;;;5072115;28;20032;-44
2022/11/25 04:10:16;;;;;;;2.20;1.30;;;;;;;;;;5064406;28;20466;-47
2022/11/25 04:12:45;;;;;;;1.92;1.38;;;;;;;;;;5072968;28;20053;-45
2022/11/25 04:15:11;;;;;;;2.05;1.27;;;;;;;;;;5071554;28;20036;-49
2022/11/25 04:17:37;;;;;;;1.67;1.10;;;;;;;;;;5071411;28;20031;-45
2022/11/25 04:20:04;;;;;;;2.10;1.45;;;;;;;;;;5071998;28;20420;-44
2022/11/25 04:22:30;;;;;;;1.98;1.13;;;;;;;;;;5067459;28;20020;-45
2022/11/25 04:24:56;;;;;;;3.03;1.52;;;;;;;;;;5071368;28;20120;-44
2022/11/25 04:27:22;;;;;;;3.83;1.10;;;;;;;;;;5070433;28;20024;-44
2022/11/25 04:29:48;;;;;;;2.60;1.48;;;;;;;;;;5070868;28;20369;-44
2022/11/25 04:32:14;;;;;;;3.08;1.40;;;;;;;;;;5070377;28;20017;-45
2022/11/25 04:34:40;;;;;;;2.25;1.40;;;;;;;;;;5072006;28;20021;-44
2022/11/25 04:37:06;;;;;;;2.75;1.55;;;;;;;;;;5068628;28;20024;-45
2022/11/25 04:39:32;;;;;;;1.35;1.00;;;;;;;;;;5062748;28;20097;-45
2022/11/25 04:44:43;;;;;;;2.10;1.05;;;;;;;;;;5065091;28;20067;-46
2022/11/25 04:47:09;;;;;;;1.58;0.98;;;;;;;;;;5063772;28;20052;-50
2022/11/25 04:49:34;;;;;;;1.75;1.20;;;;;;;;;;5071391;28;20017;-46
2022/11/25 04:52:00;;;;;;;1.75;1.20;;;;;;;;;;5071137;28;20012;-45
2022/11/25 05:17:16;;;;;;;1.58;1.10;;;;;;;;;;5080672;28;20140;-45
2022/11/25 05:19:43;;;;;;;4.28;1.98;;;;;;;;;;5067338;28;20040;-45
2022/11/25 05:22:12;;;;;;;3.35;1.67;;;;;;;;;;5067539;28;20021;-48
2022/11/25 05:24:38;;;;;;;1.55;1.00;;;;;;;;;;5070983;28;20035;-45
2022/11/25 05:27:05;;;;;;;1.55;1.10;;;;;;;;;;5070435;28;20028;-45
2022/11/25 05:29:30;;;;;;;1.77;1.20;;;;;;;;;;5070421;28;20021;-45
2022/11/25 05:31:56;;;;;;;2.50;1.45;;;;;;;;;;5070623;28;20074;-45
2022/11/25 05:34:22;;;;;;;2.75;1.45;;;;;;;;;;5070440;28;20025;-45
2022/11/25 05:36:50;;;;;;;2.53;1.50;;;;;;;;;;5067620;28;20498;-45
2022/11/25 05:39:16;;;;;;;2.45;1.50;;;;;;;;;;5060055;28;20029;-45
2022/11/25 05:41:42;;;;;;;1.48;1.10;;;;;;;;;;5070592;28;20467;-46
2022/11/25 05:44:08;;;;;;;2.05;1.35;;;;;;;;;;5070191;28;20051;-49
2022/11/25 05:46:34;;;;;;;2.33;1.80;;;;;;;;;;5070085;28;20020;-45
2022/11/25 05:49:00;;;;;;;2.38;1.58;;;;;;;;;;5071172;28;20374;-45
2022/11/25 05:51:27;;;;;;;1.73;1.30;;;;;;;;;;5069558;28;20150;-45
2022/11/25 05:53:53;;;;;;;1.92;1.30;;;;;;;;;;5065585;28;20029;-45
2022/11/25 05:56:19;;;;;;;2.38;1.30;;;;;;;;;;5067804;28;20024;-46
2022/11/25 05:58:45;;;;;;;1.85;1.40;;;;;;;;;;5071089;28;20473;-45
2022/11/25 06:01:11;;;;;;;1.90;1.42;;;;;;;;;;5064927;28;20028;-49
2022/11/25 06:03:37;;;;;;;2.08;1.30;;;;;;;;;;5059353;28;20033;-46
2022/11/25 06:06:04;;;;;;;4.03;1.70;;;;;;;;;;5069097;28;20028;-45
2022/11/25 06:08:30;;;;;;;2.13;1.27;;;;;;;;;;5074103;28;20716;-44
2022/11/25 06:10:56;;;;;;;3.53;1.42;;;;;;;;;;5068810;28;20025;-45
2022/11/25 06:13:22;;;;;;;1.80;1.30;;;;;;;;;;5071993;28;20031;-45
2022/11/25 06:15:48;;;;;;;3.50;1.48;;;;;;;;;;5072767;28;20033;-45
2022/11/25 06:18:16;;;;;;;2.72;1.48;;;;;;;;;;5073878;27;20094;-46
2022/11/25 06:20:42;;;;;;;2.17;1.45;;;;;;;;;;5076684;28;20071;-45
2022/11/25 06:23:09;;;;;;;2.15;1.40;;;;;;;;;;5072230;28;20825;-49
2022/11/25 06:25:35;;;;;;;2.38;1.60;;;;;;;;;;5072123;28;20031;-45
2022/11/25 06:28:02;;;;;;;4.38;1.60;;;;;;;;;;5072363;28;20028;-46
2022/11/25 06:30:28;;;;;;;2.30;1.45;;;;;;;;;;5070017;28;20477;-45
2022/11/25 06:32:54;;;;;;;4.05;1.50;;;;;;;;;;5074735;28;20029;-44
2022/11/25 06:35:20;;;;;;;3.80;1.60;;;;;;;;;;5071745;28;20444;-45
2022/11/25 06:37:46;;;;;;;2.72;1.83;;;;;;;;;;5074008;28;20099;-45
2022/11/25 06:40:12;;;;;;;3.05;1.63;;;;;;;;;;5072676;28;20120;-48
2022/11/25 06:42:38;;;;;;;1.92;1.50;;;;;;;;;;5073535;28;20047;-45
2022/11/25 06:45:05;;;;;;;1.98;1.20;;;;;;;;;;5072803;28;20041;-45
2022/11/25 06:47:31;;;;;;;4.35;1.80;;;;;;;;;;5070958;28;20024;-45
2022/11/25 06:49:57;;;;;;;8.13;1.58;;;;;;;;;;5072309;28;20123;-46
2022/11/25 06:52:23;;;;;;;3.78;1.60;;;;;;;;;;5071735;28;20028;-44
2022/11/25 06:54:50;;;;;;;2.83;1.60;;;;;;;;;;5073184;28;20029;-44
2022/11/25 06:57:17;;;;;;;2.10;1.42;;;;;;;;;;5071306;28;20052;-45
2022/11/25 06:59:44;;;;;;;2.78;1.20;;;;;;;;;;5073250;28;20033;-45
2022/11/25 07:02:11;;;;;;;1.98;1.40;;;;;;;;;;5065725;28;20021;-50
2022/11/25 07:04:37;;;;;;;3.97;1.40;;;;;;;;;;5072900;28;20117;-45
2022/11/25 07:07:03;;;;;;;2.17;1.50;;;;;;;;;;5072067;28;20024;-46
2022/11/25 07:09:29;;;;;;;2.13;1.50;;;;;;;;;;5069253;28;20097;-45
2022/11/25 07:11:55;;;;;;;3.35;1.88;;;;;;;;;;5072755;28;20449;-45
2022/11/25 07:14:21;;;;;;;2.88;1.55;;;;;;;;;;5072396;28;20090;-45
2022/11/25 07:16:47;;;;;;;5.63;1.60;;;;;;;;;;5072831;28;20823;-45
2022/11/25 07:19:15;;;;;;;3.45;1.65;;;;;;;;;;5061341;28;20518;-46
2022/11/25 07:21:43;;;;;;;2.38;1.50;;;;;;;;;;5053106;28;20095;-44
2022/11/25 07:24:09;;;;;;;3.25;1.35;;;;;;;;;;5052343;28;20429;-49
2022/11/25 07:26:39;;;;;;;2.17;1.50;;;;;;;;;;5052137;28;20013;-45
2022/11/25 07:29:07;;;;;;;3.08;1.92;;;;;;;;;;5053110;28;20461;-45
2022/11/25 07:31:36;;;;;;;3.03;1.95;;;;;;;;;;5052014;28;20036;-45
2022/11/25 07:34:03;;;;;;;2.63;1.52;;;;;;;;;;5052980;28;20033;-45
2022/11/25 07:36:29;;;;;;;3.17;1.90;;;;;;;;;;5047697;28;20406;-45
2022/11/25 07:38:57;;;;;;;6.63;2.22;;;;;;;;;;5057421;28;20032;-48
2022/11/25 07:41:23;;;;;;;4.25;1.88;;;;;;;;;;5050977;28;20064;-45
2022/11/25 07:43:53;;;;;;;6.05;2.00;;;;;;;;;;5054896;28;20115;-45
2022/11/25 07:46:35;;;;;;;8.70;2.55;;;;;;;;;;5052198;28;20029;-46
2022/11/25 07:49:03;;;;;;;13.10;2.60;;;;;;;;;;5052737;28;20025;-45
2022/11/25 07:51:33;;;;;;;8.05;1.98;;;;;;;;;;5051447;28;20021;-45
2022/11/25 07:53:59;;;;;;;7.47;2.13;;;;;;;;;;5052849;28;20378;-45
2022/11/25 07:56:26;;;;;;;6.38;2.42;;;;;;;;;;5051403;28;20470;-45
2022/11/25 07:58:53;;;;;;;6.63;2.40;;;;;;;;;;5052207;28;20025;-45
2022/11/25 08:01:19;;;;;;;9.35;2.53;;;;;;;;;;5050614;28;20096;-44
2022/11/25 08:03:46;;;;;;;7.43;3.03;;;;;;;;;;5052322;28;20104;-45
2022/11/25 08:06:13;;;;;;;5.82;2.28;;;;;;;;;;5050854;28;20029;-46
2022/11/25 08:08:40;;;;;;;5.60;1.90;;;;;;;;;;5049369;28;20151;-44
2022/11/25 08:11:17;;;;;;;4.97;2.05;;;;;;;;;;5051351;28;20490;-46
2022/11/25 08:13:44;;;;;;;5.75;1.95;;;;;;;;;;5051842;28;20047;-46
2022/11/25 08:16:11;;;;;;;14.38;2.53;;;;;;;;;;5050939;28;20096;-50
2022/11/25 08:18:37;;;;;;;6.18;1.90;;;;;;;;;;5060735;28;20044;-46
2022/11/25 08:21:05;;;;;;;8.25;2.95;;;;;;;;;;5071477;28;20032;-45
2022/11/25 08:23:31;;;;;;;10.32;3.45;;;;;;;;;;5071078;28;20113;-45
2022/11/25 08:25:57;;;;;;;5.35;2.15;;;;;;;;;;5071237;28;20024;-46
2022/11/25 08:28:24;;;;;;;6.97;2.08;;;;;;;;;;5069519;28;20493;-46
2022/11/25 08:30:50;;;;;;;8.07;2.30;;;;;;;;;;5071073;28;20032;-45
2022/11/25 08:33:16;;;;;;;4.38;2.05;;;;;;;;;;5070978;28;20095;-46
2022/11/25 08:35:42;;;;;;;6.80;2.50;;;;;;;;;;5070984;28;20104;-45
2022/11/25 08:38:09;;;;;;;6.68;2.03;;;;;;;;;;5071275;28;20024;-50
2022/11/25 08:40:36;;;;;;;5.57;2.13;;;;;;;;;;5060628;28;20032;-45
2022/11/25 08:43:02;;;;;;;4.72;2.53;;;;;;;;;;5071707;28;20020;-45
2022/11/25 08:45:29;;;;;;;3.63;1.63;;;;;;;;;;5062972;28;20438;-46
2022/11/25 08:47:55;;;;;;;6.43;2.40;;;;;;;;;;5071189;28;20039;-46
2022/11/25 08:50:23;;;;;;;4.68;2.05;;;;;;;;;;5069774;28;20029;-46
2022/11/25 08:52:49;;;;;;;4.40;1.90;;;;;;;;;;5071736;28;20347;-48
2022/11/25 08:55:15;;;;;;;4.50;2.03;;;;;;;;;;5069324;28;20489;-46
2022/11/25 08:57:41;;;;;;;5.30;2.13;;;;;;;;;;5070684;28;20413;-46
2022/11/25 09:00:07;;;;;;;8.13;2.30;;;;;;;;;;5070924;28;20029;-49
2022/11/25 09:02:33;;;;;;;5.43;1.70;;;;;;;;;;5069290;28;20484;-46
2022/11/25 09:04:59;;;;;;;5.43;2.10;;;;;;;;;;5071223;28;20076;-46
2022/11/25 09:07:25;;;;;;;8.65;2.40;;;;;;;;;;5069295;28;20156;-46
2022/11/25 09:09:51;;;;;;;7.32;2.20;;;;;;;;;;5079594;28;20016;-45
2022/11/25 09:12:17;;;;;;;6.93;2.15;;;;;;;;;;5071516;28;20048;-46
2022/11/25 09:14:43;;;;;;;5.50;2.20;;;;;;;;;;5075118;28;20108;-46
2022/11/25 09:17:10;;;;;;;4.78;2.75;;;;;;;;;;5070258;28;20032;-50
2022/11/25 09:19:36;;;;;;;5.47;2.08;;;;;;;;;;5068671;28;20040;-45
2022/11/25 09:22:02;;;;;;;5.45;2.00;;;;;;;;;;5070671;28;20032;-46
2022/11/25 09:24:28;;;;;;;3.58;2.00;;;;;;;;;;5070036;28;20028;-46
2022/11/25 09:26:54;;;;;;;5.40;2.00;;;;;;;;;;5066757;28;20370;-46
2022/11/25 09:29:20;;;;;;;4.90;1.88;;;;;;;;;;5070493;28;20017;-46
2022/11/25 09:31:46;;;;;;;6.35;2.45;;;;;;;;;;5070166;28;20017;-46
2022/11/25 09:34:12;;;;;;;5.25;2.08;;;;;;;;;;5070867;28;20043;-48
2022/11/25 09:36:38;;;;;;;5.50;2.38;;;;;;;;;;5064965;28;20020;-46
2022/11/25 09:39:05;;;;;;;3.08;1.83;;;;;;;;;;5070838;28;20025;-46
2022/11/25 09:47:28;;;;;;;5.53;2.15;;;;;;;;;;5073125;28;20105;-46
2022/11/25 09:49:57;;;;;;;5.95;2.15;;;;;;;;;;5074864;28;20511;-46
2022/11/25 09:52:35;;;;;;;5.57;1.83;;;;;;;;;;5066569;28;20032;-46
2022/11/25 09:55:06;;;;;;;4.22;1.95;;;;;;;;;;5074332;28;20540;-46
2022/11/25 09:57:32;;;;;;;3.25;2.20;;;;;;;;;;5066089;28;20028;-46
2022/11/25 09:59:58;;;;;;;6.40;2.55;;;;;;;;;;5074722;28;20461;-47
2022/11/25 10:02:37;;;;;;;4.63;2.10;;;;;;;;;;5075355;28;20066;-45
2022/11/25 10:05:15;;;;;;;5.95;2.58;;;;;;;;;;5062389;28;20501;-45
2022/11/25 10:07:46;;;;;;;4.80;1.80;;;;;;;;;;5074653;28;20079;-46
2022/11/25 10:10:38;;;;;;;4.22;1.75;;;;;;;;;;5066497;28;20021;-49
2022/11/25 10:13:04;;;;;;;;;;;;;;;;;;5072620;28;20051;-46
2022/11/25 10:15:33;;;;;;;2.75;1.92;;;;;;;;;;5072974;28;19987;-46
2022/11/25 10:18:02;;;;;;;4.30;2.17;;;;;;;;;;5074257;28;20048;-46
2022/11/25 10:20:34;;;;;;;5.38;2.33;;;;;;;;;;5072723;28;20074;-46
2022/11/25 10:23:02;;;;;;;4.07;2.05;;;;;;;;;;5073493;28;20045;-46
2022/11/25 10:25:29;;;;;;;4.15;2.45;;;;;;;;;;5069805;28;20040;-45
2022/11/25 10:27:58;;;;;;;3.28;2.22;;;;;;;;;;5069477;28;20051;-45
2022/11/25 10:30:25;;;;;;;3.05;2.00;;;;;;;;;;5072304;28;20941;-46
2022/11/25 10:33:12;;;;;;;4.57;1.70;;;;;;;;;;5073659;28;20032;-46
2022/11/25 10:35:45;;;;;;;4.80;1.90;;;;;;;;;;5072918;28;20075;-45
2022/11/25 10:38:14;;;;;;;3.50;1.80;;;;;;;;;;5072597;28;20025;-51
2022/11/25 10:40:44;;;;;;;2.30;1.60;;;;;;;;;;5063972;28;20031;-45
2022/11/25 10:43:12;;;;;;;4.07;2.28;;;;;;;;;;5072442;28;20031;-50
2022/11/25 10:45:43;;;;;;;3.08;2.05;;;;;;;;;;5073112;28;20020;-46
2022/11/25 10:48:17;;;;;;;5.30;1.88;;;;;;;;;;5073177;28;20036;-50
2022/11/25 10:50:52;;;;;;;6.00;2.80;;;;;;;;;;5073046;28;20048;-46
2022/11/25 10:53:24;;;;;;;3.85;1.88;;;;;;;;;;5072777;28;20100;-45
2022/11/25 10:56:00;;;;;;;4.85;1.88;;;;;;;;;;5072700;28;20024;-46
2022/11/25 10:58:26;;;;;;;4.28;1.70;;;;;;;;;;5072486;28;20104;-46
2022/11/25 11:01:01;;;;;;;4.72;2.30;;;;;;;;;;5065558;28;20020;-46
2022/11/25 11:03:28;;;;;;;4.45;2.00;;;;;;;;;;5063891;28;20124;-45
2022/11/25 11:05:54;;;;;;;4.43;2.80;;;;;;;;;;5072908;28;20020;-47
2022/11/25 11:08:24;;;;;;;3.92;2.10;;;;;;;;;;5072544;28;20031;-45
2022/11/25 11:11:10;;;;;;;6.75;2.58;;;;;;;;;;5070383;28;20024;-45
2022/11/25 11:13:36;;;;;;;7.07;3.13;;;;;;;;;;5073024;28;20504;-45
2022/11/25 11:16:02;;;;;;;13.98;4.50;;;;;;;;;;5072178;28;20501;-46
2022/11/25 11:18:39;;;;;;;13.45;4.75;;;;;;;;;;5070951;28;20036;-45
2022/11/25 11:21:06;;;;;;;19.50;5.05;;;;;;;;;;5072788;28;20021;-44
2022/11/25 11:23:46;;;;;;;13.90;4.32;;;;;;;;;;5072456;28;20094;-45
2022/11/25 11:26:21;;;;;;;12.48;4.75;;;;;;;;;;5068986;28;20419;-46
2022/11/25 11:28:47;;;;;;;13.25;4.38;;;;;;;;;;5073072;28;20017;-43
2022/11/25 11:31:21;;;;;;;12.80;4.53;;;;;;;;;;5071756;28;20464;-44
2022/11/25 11:33:47;;;;;;;11.38;3.72;;;;;;;;;;5071955;28;20051;-43
2022/11/25 11:36:16;;;;;;;10.60;3.30;;;;;;;;;;5071483;28;20529;-44
2022/11/25 11:38:53;;;;;;;9.23;3.60;;;;;;;;;;5067629;28;20052;-43
2022/11/25 11:41:30;;;;;;;16.98;4.57;;;;;;;;;;5063987;28;20028;-43
2022/11/25 11:44:14;;;;;;;14.98;3.88;;;;;;;;;;5072581;28;20370;-43
2022/11/25 11:46:45;;;;;;;10.45;3.70;;;;;;;;;;5068732;28;20027;-42
2022/11/25 11:49:34;;;;;;;15.27;4.28;;;;;;;;;;5072143;28;20385;-47
2022/11/25 11:52:29;;;;;;;10.73;3.63;;;;;;;;;;5071224;28;20031;-43
2022/11/25 11:55:01;;;;;;;11.32;3.88;;;;;;;;;;5058575;28;20082;-43
2022/11/25 11:57:35;;;;;;;9.45;3.63;;;;;;;;;;5071032;28;20042;-43
2022/11/25 12:00:07;;;;;;;13.38;3.95;;;;;;;;;;5072769;28;20744;-43
2022/11/25 12:02:54;;;;;;;12.63;3.97;;;;;;;;;;5064739;28;20031;-43
2022/11/25 12:05:22;;;;;;;8.65;3.55;;;;;;;;;;5070702;28;20029;-43
2022/11/25 12:08:00;;;;;;;13.65;3.75;;;;;;;;;;5071111;28;20021;-43
2022/11/25 12:10:46;;;;;;;9.00;3.75;;;;;;;;;;5068373;28;20377;-43
2022/11/25 12:13:15;;;;;;;9.82;3.30;;;;;;;;;;5065070;28;20416;-44
2022/11/25 12:15:45;;;;;;;8.00;3.28;;;;;;;;;;5065835;28;20027;-43
2022/11/25 12:18:31;;;;;;;8.38;3.35;;;;;;;;;;5070666;28;20497;-46
2022/11/25 12:21:08;;;;;;;9.73;3.20;;;;;;;;;;5071155;28;20029;-43
2022/11/25 12:23:44;;;;;;;8.77;3.28;;;;;;;;;;5071196;28;20132;-43
2022/11/25 12:26:28;;;;;;;6.75;2.78;;;;;;;;;;5059717;28;20024;-46
2022/11/25 12:28:57;;;;;;;6.15;2.70;;;;;;;;;;5071932;28;20017;-42
2022/11/25 12:31:38;;;;;;;6.63;2.63;;;;;;;;;;5066437;28;20067;-43
2022/11/25 12:34:13;;;;;;;8.95;3.97;;;;;;;;;;5070859;28;20036;-43
2022/11/25 12:36:40;;;;;;;6.65;2.55;;;;;;;;;;5065148;28;20098;-43
2022/11/25 12:39:28;;;;;;;6.97;2.80;;;;;;;;;;5071443;28;20376;-43
2022/11/25 12:41:55;;;;;;;6.72;3.38;;;;;;;;;;5070415;28;20029;-43
2022/11/25 12:44:29;;;;;;;5.70;3.03;;;;;;;;;;5070791;28;20024;-43
2022/11/25 12:46:56;;;;;;;12.77;3.03;;;;;;;;;;5070986;28;20074;-43
2022/11/25 12:49:22;;;;;;;9.82;3.00;;;;;;;;;;5070525;28;20025;-43
2022/11/25 12:51:57;;;;;;;8.13;2.78;;;;;;;;;;5071128;28;20020;-43
2022/11/25 12:54:29;;;;;;;7.80;2.78;;;;;;;;;;5070690;28;20067;-43
2022/11/25 12:57:13;;;;;;;7.78;3.03;;;;;;;;;;5070339;28;20032;-44
2022/11/25 12:59:39;;;;;;;5.45;2.47;;;;;;;;;;5070718;28;20369;-43
2022/11/25 13:02:20;;;;;;;6.53;2.22;;;;;;;;;;5070862;28;20071;-43
2022/11/25 13:04:52;;;;;;;8.82;3.72;;;;;;;;;;5071020;28;20491;-43
2022/11/25 13:07:18;;;;;;;;;;;;;;;;;;5070643;28;20032;-44
2022/11/25 13:18:39;;;;;;;7.20;3.22;;;;;;;;;;5062642;28;20121;-43
2022/11/25 13:21:06;;;;;;;6.75;2.35;;;;;;;;;;5073426;28;20052;-43
2022/11/25 13:23:59;;;;;;;6.38;2.75;;;;;;;;;;5073889;28;20043;-43
2022/11/25 13:26:28;;;;;;;7.13;2.33;;;;;;;;;;5060164;28;20040;-43
2022/11/25 13:28:55;;;;;;;6.32;2.70;;;;;;;;;;5074816;28;20091;-44
2022/11/25 13:31:25;;;;;;;4.60;2.78;;;;;;;;;;5073934;28;20028;-43
2022/11/25 13:33:55;;;;;;;3.75;2.58;;;;;;;;;;5074338;28;20032;-43
2022/11/25 13:36:25;;;;;;;5.68;2.58;;;;;;;;;;5073333;28;20490;-44
2022/11/25 13:38:51;;;;;;;8.02;2.78;;;;;;;;;;5074722;28;20381;-43
2022/11/25 13:41:21;;;;;;;3.92;2.75;;;;;;;;;;5073931;28;20024;-43
2022/11/25 13:44:00;;;;;;;4.30;2.40;;;;;;;;;;5074664;28;20028;-42
2022/11/25 13:46:29;;;;;;;8.25;2.70;;;;;;;;;;5073117;28;20489;-45
2022/11/25 13:48:55;;;;;;;9.43;3.35;;;;;;;;;;5074862;28;20020;-43
2022/11/25 13:51:22;;;;;;;5.30;2.40;;;;;;;;;;5072476;28;20063;-42
2022/11/25 13:53:51;;;;;;;8.20;3.00;;;;;;;;;;5074498;28;20032;-43
2022/11/25 13:56:19;;;;;;;9.23;3.33;;;;;;;;;;5072275;28;20024;-43
2022/11/25 13:59:04;;;;;;;12.45;3.30;;;;;;;;;;5062297;28;20610;-43
2022/11/25 14:01:30;;;;;;;13.98;3.08;;;;;;;;;;5070509;28;20051;-43
2022/11/25 14:03:59;;;;;;;9.88;2.90;;;;;;;;;;5060332;28;20044;-43
2022/11/25 14:06:40;;;;;;;9.43;3.20;;;;;;;;;;5065587;28;20389;-43
2022/11/25 14:09:08;;;;;;;6.95;2.97;;;;;;;;;;5071037;28;20062;-43
2022/11/25 14:11:34;;;;;;;9.00;3.05;;;;;;;;;;5071985;28;20112;-43
2022/11/25 14:14:19;;;;;;;10.38;3.72;;;;;;;;;;5070518;28;20160;-44
2022/11/25 14:16:54;;;;;;;7.30;2.63;;;;;;;;;;5066613;28;20024;-43
2022/11/25 14:19:42;;;;;;;9.95;2.67;;;;;;;;;;5072141;28;20097;-43
2022/11/25 14:22:27;;;;;;;11.05;3.25;;;;;;;;;;5073172;28;20021;-47
2022/11/25 14:24:55;;;;;;;3.97;2.42;;;;;;;;;;5071052;28;20041;-43
2022/11/25 14:27:25;;;;;;;5.03;2.63;;;;;;;;;;5072836;28;20415;-44
2022/11/25 14:29:53;;;;;;;5.10;2.17;;;;;;;;;;5066140;28;20389;-43
2022/11/25 14:32:34;;;;;;;6.35;3.05;;;;;;;;;;5071785;28;20074;-43
2022/11/25 14:35:04;;;;;;;5.55;2.28;;;;;;;;;;5073729;28;20032;-43
2022/11/25 14:37:45;;;;;;;3.88;2.70;;;;;;;;;;5072027;28;20078;-43
2022/11/25 14:40:17;;;;;;;4.90;2.47;;;;;;;;;;5072969;28;20024;-46
2022/11/25 14:42:43;;;;;;;;;;;;;;;;;;5070722;28;20443;-43
2022/11/25 14:45:23;;;;;;;6.70;2.20;;;;;;;;;;5063164;28;19917;-46
2022/11/25 14:47:49;;;;;;;4.50;2.20;;;;;;;;;;5073563;28;20027;-43
2022/11/25 14:50:15;;;;;;;5.25;2.42;;;;;;;;;;5058590;28;20436;-44
2022/11/25 14:52:42;;;;;;;4.55;2.03;;;;;;;;;;5072915;28;20027;-43
2022/11/25 14:55:10;;;;;;;6.03;2.15;;;;;;;;;;5079968;28;20029;-46
2022/11/25 14:57:37;;;;;;;6.20;2.60;;;;;;;;;;5074135;28;20094;-43
2022/11/25 15:00:06;;;;;;;4.03;2.03;;;;;;;;;;5060571;28;20359;-43
2022/11/25 15:02:33;;;;;;;6.68;1.75;;;;;;;;;;5070266;28;20489;-43
2022/11/25 15:05:16;;;;;;;5.63;2.10;;;;;;;;;;5068804;28;20037;-43
2022/11/25 15:07:53;;;;;;;7.03;3.05;;;;;;;;;;5073460;28;20024;-43
2022/11/25 15:10:28;;;;;;;4.97;2.13;;;;;;;;;;5071688;28;20381;-43
2022/11/25 15:12:54;;;;;;;6.57;2.75;;;;;;;;;;5073218;28;20436;-43
2022/11/25 15:15:20;;;;;;;3.25;1.92;;;;;;;;;;5068421;28;20032;-45
2022/11/25 15:17:46;;;;;;;4.45;2.50;;;;;;;;;;5070246;28;20025;-43
2022/11/25 15:20:16;;;;;;;7.30;2.13;;;;;;;;;;5072250;28;20027;-46
2022/11/25 15:22:52;;;;;;;6.38;2.53;;;;;;;;;;5065568;28;20024;-43
2022/11/25 15:25:18;;;;;;;4.28;1.92;;;;;;;;;;5071605;28;20040;-43
2022/11/25 15:27:47;;;;;;;2.78;1.52;;;;;;;;;;5072462;28;20420;-43
2022/11/25 15:30:23;;;;;;;4.10;2.03;;;;;;;;;;5070954;28;20036;-45
2022/11/25 15:32:50;;;;;;;5.93;1.70;;;;;;;;;;5067936;28;20020;-43
2022/11/25 15:35:24;;;;;;;4.30;1.73;;;;;;;;;;5070551;28;20051;-44
2022/11/25 15:37:49;;;;;;;5.63;2.03;;;;;;;;;;5071117;28;20039;-43
2022/11/25 15:40:42;;;;;;;10.63;2.47;;;;;;;;;;5069933;28;20095;-43
2022/11/25 15:43:40;;;;;;;3.55;1.77;;;;;;;;;;5069888;28;20042;-46
2022/11/25 15:46:07;;;;;;;14.40;3.67;;;;;;;;;;5060505;28;20378;-43